sensor_id;sensor_type;location;lat;lon;timestamp;pressure;altitude;pressure_sealevel;temperature;humidity
9225;BME280;4647;48.072;11.616;2023-08-07T00:00:24;94960.28;;;11.99;70.43
9225;BME280;4647;48.072;11.616;2023-08-07T00:02:53;94947.84;;;11.86;71.73
9225;BME280;4647;48.072;11.616;2023-08-07T00:05:21;94954.59;;;11.94;71.07
9225;BME280;4647;48.072;11.616;2023-08-07T00:07:50;94953.84;;;11.93;70.54
9225;BME280;4647;48.072;11.616;2023-08-07T00:10:18;94965.81;;;11.96;70.46
9225;BME280;4647;48.072;11.616;2023-08-07T00:12:47;94965.38;;;11.81;70.68
9225;BME280;4647;48.072;11.616;2023-08-07T00:15:18;94960.44;;;11.76;70.52
9225;BME280;4647;48.072;11.616;2023-08-07T00:17:46;94969.22;;;11.84;70.77
9225;BME280;4647;48.072;11.616;2023-08-07T00:20:15;94978.75;;;11.72;70.47
9225;BME280;4647;48.072;11.616;2023-08-07T00:22:43;94982.41;;;11.82;70.93
9225;BME280;4647;48.072;11.616;2023-08-07T00:25:11;94984.38;;;11.81;70.75
9225;BME280;4647;48.072;11.616;2023-08-07T00:27:40;94986.97;;;11.68;71.74
9225;BME280;4647;48.072;11.616;2023-08-07T00:30:10;94992.25;;;11.59;71.90
9225;BME280;4647;48.072;11.616;2023-08-07T00:32:41;95004.53;;;11.64;72.54
9225;BME280;4647;48.072;11.616;2023-08-07T00:35:09;94996.97;;;11.55;71.81
9225;BME280;4647;48.072;11.616;2023-08-07T00:37:38;94984.75;;;11.47;71.85
9225;BME280;4647;48.072;11.616;2023-08-07T00:40:08;95002.06;;;11.53;72.62
9225;BME280;4647;48.072;11.616;2023-08-07T00:42:36;95000.44;;;11.40;73.52
9225;BME280;4647;48.072;11.616;2023-08-07T00:45:07;94991.38;;;11.46;72.78
9225;BME280;4647;48.072;11.616;2023-08-07T00:47:36;94997.44;;;11.34;72.41
9225;BME280;4647;48.072;11.616;2023-08-07T00:50:08;95001.41;;;11.29;74.02
9225;BME280;4647;48.072;11.616;2023-08-07T00:52:37;95004.56;;;11.28;74.23
9225;BME280;4647;48.072;11.616;2023-08-07T00:55:07;95005.69;;;11.11;75.62
9225;BME280;4647;48.072;11.616;2023-08-07T00:57:35;95004.25;;;11.06;75.74
9225;BME280;4647;48.072;11.616;2023-08-07T01:00:06;95003.97;;;11.00;76.72
9225;BME280;4647;48.072;11.616;2023-08-07T01:02:37;95003.50;;;10.86;77.16
9225;BME280;4647;48.072;11.616;2023-08-07T01:05:08;95004.81;;;10.77;79.04
9225;BME280;4647;48.072;11.616;2023-08-07T01:07:36;95001.06;;;10.52;80.68
9225;BME280;4647;48.072;11.616;2023-08-07T01:10:06;95000.72;;;10.50;81.44
9225;BME280;4647;48.072;11.616;2023-08-07T01:12:42;95007.06;;;10.39;82.20
9225;BME280;4647;48.072;11.616;2023-08-07T01:15:16;95011.94;;;10.28;82.45
9225;BME280;4647;48.072;11.616;2023-08-07T01:17:46;94997.34;;;10.22;83.12
9225;BME280;4647;48.072;11.616;2023-08-07T01:20:18;95013.53;;;10.26;83.66
9225;BME280;4647;48.072;11.616;2023-08-07T01:22:49;95010.91;;;10.19;84.75
9225;BME280;4647;48.072;11.616;2023-08-07T01:25:18;95007.75;;;10.24;84.80
9225;BME280;4647;48.072;11.616;2023-08-07T01:27:50;95013.22;;;10.20;84.57
9225;BME280;4647;48.072;11.616;2023-08-07T01:30:28;95007.50;;;10.14;84.84
9225;BME280;4647;48.072;11.616;2023-08-07T01:33:03;95012.44;;;10.20;85.76
9225;BME280;4647;48.072;11.616;2023-08-07T01:35:37;95005.66;;;10.08;84.35
9225;BME280;4647;48.072;11.616;2023-08-07T01:38:11;95022.97;;;10.14;86.20
9225;BME280;4647;48.072;11.616;2023-08-07T01:40:42;95010.03;;;10.02;85.88
9225;BME280;4647;48.072;11.616;2023-08-07T01:43:11;95017.44;;;9.98;85.66
9225;BME280;4647;48.072;11.616;2023-08-07T01:45:39;95026.97;;;10.06;85.63
9225;BME280;4647;48.072;11.616;2023-08-07T01:48:07;95015.88;;;10.00;86.44
9225;BME280;4647;48.072;11.616;2023-08-07T01:50:38;95029.41;;;10.00;86.52
9225;BME280;4647;48.072;11.616;2023-08-07T01:53:06;95027.09;;;9.99;85.39
9225;BME280;4647;48.072;11.616;2023-08-07T01:55:37;95027.16;;;9.95;86.17
9225;BME280;4647;48.072;11.616;2023-08-07T01:58:06;95027.19;;;9.92;86.88
9225;BME280;4647;48.072;11.616;2023-08-07T02:00:34;95021.84;;;9.88;86.67
9225;BME280;4647;48.072;11.616;2023-08-07T02:03:03;95040.03;;;9.88;86.55
9225;BME280;4647;48.072;11.616;2023-08-07T02:05:34;95011.06;;;9.61;86.36
9225;BME280;4647;48.072;11.616;2023-08-07T02:08:04;95022.84;;;9.74;86.21
9225;BME280;4647;48.072;11.616;2023-08-07T02:10:32;95034.63;;;9.88;86.74
9225;BME280;4647;48.072;11.616;2023-08-07T02:13:03;95018.16;;;9.78;87.24
9225;BME280;4647;48.072;11.616;2023-08-07T02:15:32;95032.91;;;9.74;87.19
9225;BME280;4647;48.072;11.616;2023-08-07T02:18:00;95029.03;;;9.75;87.04
9225;BME280;4647;48.072;11.616;2023-08-07T02:20:29;95027.38;;;9.81;86.92
9225;BME280;4647;48.072;11.616;2023-08-07T02:22:57;95027.94;;;9.69;86.99
9225;BME280;4647;48.072;11.616;2023-08-07T02:25:26;95025.16;;;9.76;87.56
9225;BME280;4647;48.072;11.616;2023-08-07T02:27:54;95019.06;;;9.68;87.15
9225;BME280;4647;48.072;11.616;2023-08-07T02:30:25;95020.19;;;9.71;87.15
9225;BME280;4647;48.072;11.616;2023-08-07T02:32:54;95041.63;;;9.85;86.63
9225;BME280;4647;48.072;11.616;2023-08-07T02:35:22;95030.78;;;9.85;87.23
9225;BME280;4647;48.072;11.616;2023-08-07T02:37:51;95036.13;;;9.89;86.11
9225;BME280;4647;48.072;11.616;2023-08-07T02:40:19;95044.19;;;9.92;86.22
9225;BME280;4647;48.072;11.616;2023-08-07T02:42:47;95050.78;;;9.91;86.31
9225;BME280;4647;48.072;11.616;2023-08-07T02:45:17;95050.44;;;9.89;85.61
9225;BME280;4647;48.072;11.616;2023-08-07T02:47:48;95048.44;;;9.93;85.78
9225;BME280;4647;48.072;11.616;2023-08-07T02:50:16;95055.69;;;10.00;85.18
9225;BME280;4647;48.072;11.616;2023-08-07T02:52:45;95060.28;;;10.03;85.07
9225;BME280;4647;48.072;11.616;2023-08-07T02:55:13;95055.16;;;10.08;85.00
9225;BME280;4647;48.072;11.616;2023-08-07T02:57:42;95062.16;;;10.06;84.03
9225;BME280;4647;48.072;11.616;2023-08-07T03:00:11;95063.22;;;10.12;84.51
9225;BME280;4647;48.072;11.616;2023-08-07T03:02:40;95070.94;;;10.13;84.31
9225;BME280;4647;48.072;11.616;2023-08-07T03:05:11;95059.34;;;10.13;84.92
9225;BME280;4647;48.072;11.616;2023-08-07T03:07:39;95066.63;;;10.16;84.17
9225;BME280;4647;48.072;11.616;2023-08-07T03:10:08;95068.97;;;10.14;84.72
9225;BME280;4647;48.072;11.616;2023-08-07T03:12:36;95061.56;;;10.22;84.29
9225;BME280;4647;48.072;11.616;2023-08-07T03:15:08;95063.88;;;10.20;83.88
9225;BME280;4647;48.072;11.616;2023-08-07T03:17:36;95066.84;;;10.29;83.75
9225;BME280;4647;48.072;11.616;2023-08-07T03:20:05;95068.09;;;10.24;83.36
9225;BME280;4647;48.072;11.616;2023-08-07T03:22:37;95064.63;;;10.24;82.32
9225;BME280;4647;48.072;11.616;2023-08-07T03:25:06;95065.31;;;10.28;82.43
9225;BME280;4647;48.072;11.616;2023-08-07T03:27:35;95062.91;;;10.33;82.80
9225;BME280;4647;48.072;11.616;2023-08-07T03:30:04;95066.28;;;10.41;81.69
9225;BME280;4647;48.072;11.616;2023-08-07T03:32:33;95075.25;;;10.34;81.60
9225;BME280;4647;48.072;11.616;2023-08-07T03:35:02;95076.69;;;10.42;81.44
9225;BME280;4647;48.072;11.616;2023-08-07T03:37:30;95065.25;;;10.31;81.13
9225;BME280;4647;48.072;11.616;2023-08-07T03:40:01;95078.66;;;10.38;80.57
9225;BME280;4647;48.072;11.616;2023-08-07T03:42:30;95081.22;;;10.49;80.47
9225;BME280;4647;48.072;11.616;2023-08-07T03:44:58;95081.97;;;10.50;80.57
9225;BME280;4647;48.072;11.616;2023-08-07T03:47:27;95077.25;;;10.54;80.25
9225;BME280;4647;48.072;11.616;2023-08-07T03:49:55;95071.63;;;10.44;79.81
9225;BME280;4647;48.072;11.616;2023-08-07T03:52:23;95079.41;;;10.42;79.98
9225;BME280;4647;48.072;11.616;2023-08-07T03:54:52;95081.16;;;10.53;80.13
9225;BME280;4647;48.072;11.616;2023-08-07T03:57:23;95092.81;;;10.50;79.41
9225;BME280;4647;48.072;11.616;2023-08-07T03:59:52;95088.22;;;10.47;80.11
9225;BME280;4647;48.072;11.616;2023-08-07T04:02:20;95083.63;;;10.43;78.76
9225;BME280;4647;48.072;11.616;2023-08-07T04:04:49;95089.75;;;10.48;78.80
9225;BME280;4647;48.072;11.616;2023-08-07T04:07:17;95097.69;;;10.58;79.25
9225;BME280;4647;48.072;11.616;2023-08-07T04:09:46;95099.22;;;10.59;79.54
9225;BME280;4647;48.072;11.616;2023-08-07T04:12:14;95091.56;;;10.54;78.23
9225;BME280;4647;48.072;11.616;2023-08-07T04:14:45;95106.09;;;10.64;78.13
9225;BME280;4647;48.072;11.616;2023-08-07T04:17:14;95103.00;;;10.65;77.65
9225;BME280;4647;48.072;11.616;2023-08-07T04:19:42;95099.09;;;10.66;77.83
9225;BME280;4647;48.072;11.616;2023-08-07T04:22:11;95119.25;;;10.65;76.58
9225;BME280;4647;48.072;11.616;2023-08-07T04:24:39;95109.94;;;10.66;76.54
9225;BME280;4647;48.072;11.616;2023-08-07T04:27:07;95109.47;;;10.71;76.51
9225;BME280;4647;48.072;11.616;2023-08-07T04:29:36;95112.59;;;10.70;76.48
9225;BME280;4647;48.072;11.616;2023-08-07T04:32:07;95098.28;;;10.69;74.81
9225;BME280;4647;48.072;11.616;2023-08-07T04:34:36;95104.31;;;10.77;75.09
9225;BME280;4647;48.072;11.616;2023-08-07T04:37:05;95094.66;;;10.76;74.81
9225;BME280;4647;48.072;11.616;2023-08-07T04:39:33;95104.66;;;10.79;75.72
9225;BME280;4647;48.072;11.616;2023-08-07T04:42:02;95111.63;;;10.80;75.66
9225;BME280;4647;48.072;11.616;2023-08-07T04:44:31;95111.63;;;10.80;75.87
9225;BME280;4647;48.072;11.616;2023-08-07T04:46:59;95103.91;;;10.79;74.39
9225;BME280;4647;48.072;11.616;2023-08-07T04:49:30;95115.72;;;10.88;74.42
9225;BME280;4647;48.072;11.616;2023-08-07T04:51:59;95114.25;;;10.84;75.20
9225;BME280;4647;48.072;11.616;2023-08-07T04:54:27;95133.16;;;10.87;74.13
9225;BME280;4647;48.072;11.616;2023-08-07T04:56:56;95137.00;;;10.90;74.00
9225;BME280;4647;48.072;11.616;2023-08-07T04:59:24;95129.22;;;10.92;74.13
9225;BME280;4647;48.072;11.616;2023-08-07T05:01:55;95130.41;;;10.91;73.48
9225;BME280;4647;48.072;11.616;2023-08-07T05:04:23;95138.88;;;10.93;73.55
9225;BME280;4647;48.072;11.616;2023-08-07T05:06:54;95130.69;;;10.96;73.85
9225;BME280;4647;48.072;11.616;2023-08-07T05:09:23;95130.19;;;11.01;73.31
9225;BME280;4647;48.072;11.616;2023-08-07T05:11:51;95139.03;;;11.05;73.11
9225;BME280;4647;48.072;11.616;2023-08-07T05:14:20;95131.16;;;11.11;71.85
9225;BME280;4647;48.072;11.616;2023-08-07T05:16:48;95129.59;;;11.14;71.59
9225;BME280;4647;48.072;11.616;2023-08-07T05:19:17;95141.84;;;11.22;71.51
9225;BME280;4647;48.072;11.616;2023-08-07T05:21:45;95134.19;;;11.17;72.11
9225;BME280;4647;48.072;11.616;2023-08-07T05:24:18;95147.41;;;11.15;70.97
9225;BME280;4647;48.072;11.616;2023-08-07T05:26:49;95137.59;;;11.21;70.83
9225;BME280;4647;48.072;11.616;2023-08-07T05:29:18;95142.59;;;11.22;70.72
9225;BME280;4647;48.072;11.616;2023-08-07T05:31:46;95139.72;;;11.10;70.84
9225;BME280;4647;48.072;11.616;2023-08-07T05:34:15;95136.56;;;11.15;69.94
9225;BME280;4647;48.072;11.616;2023-08-07T05:36:43;95157.69;;;11.23;69.57
9225;BME280;4647;48.072;11.616;2023-08-07T05:39:12;95151.22;;;11.17;68.96
9225;BME280;4647;48.072;11.616;2023-08-07T05:41:43;95150.81;;;11.19;69.87
9225;BME280;4647;48.072;11.616;2023-08-07T05:44:11;95151.00;;;11.08;70.10
9225;BME280;4647;48.072;11.616;2023-08-07T05:46:40;95152.69;;;11.22;70.00
9225;BME280;4647;48.072;11.616;2023-08-07T05:49:08;95172.44;;;11.22;69.09
9225;BME280;4647;48.072;11.616;2023-08-07T05:51:37;95162.34;;;11.23;69.25
9225;BME280;4647;48.072;11.616;2023-08-07T05:54:06;95165.56;;;11.37;68.85
9225;BME280;4647;48.072;11.616;2023-08-07T05:56:35;95173.06;;;11.30;69.22
9225;BME280;4647;48.072;11.616;2023-08-07T05:59:06;95174.47;;;11.38;68.48
9225;BME280;4647;48.072;11.616;2023-08-07T06:01:34;95180.94;;;11.44;68.85
9225;BME280;4647;48.072;11.616;2023-08-07T06:04:06;95168.69;;;11.36;68.55
9225;BME280;4647;48.072;11.616;2023-08-07T06:06:35;95181.88;;;11.34;68.01
9225;BME280;4647;48.072;11.616;2023-08-07T06:09:05;95185.00;;;11.32;67.53
9225;BME280;4647;48.072;11.616;2023-08-07T06:11:33;95171.53;;;11.49;67.40
9225;BME280;4647;48.072;11.616;2023-08-07T06:14:02;95190.72;;;11.58;67.41
9225;BME280;4647;48.072;11.616;2023-08-07T06:16:33;95192.13;;;11.66;66.87
9225;BME280;4647;48.072;11.616;2023-08-07T06:19:01;95182.19;;;11.59;66.75
9225;BME280;4647;48.072;11.616;2023-08-07T06:21:29;95187.66;;;11.56;67.32
9225;BME280;4647;48.072;11.616;2023-08-07T06:23:58;95188.41;;;11.56;66.83
9225;BME280;4647;48.072;11.616;2023-08-07T06:26:27;95189.28;;;11.93;66.22
9225;BME280;4647;48.072;11.616;2023-08-07T06:28:55;95187.72;;;12.12;65.52
9225;BME280;4647;48.072;11.616;2023-08-07T06:31:23;95193.06;;;12.15;65.00
9225;BME280;4647;48.072;11.616;2023-08-07T06:33:55;95193.16;;;12.28;64.30
9225;BME280;4647;48.072;11.616;2023-08-07T06:36:25;95174.81;;;12.16;64.29
9225;BME280;4647;48.072;11.616;2023-08-07T06:38:54;95199.47;;;12.57;62.63
9225;BME280;4647;48.072;11.616;2023-08-07T06:41:22;95194.63;;;12.49;62.80
9225;BME280;4647;48.072;11.616;2023-08-07T06:43:51;95180.19;;;12.68;61.69
9225;BME280;4647;48.072;11.616;2023-08-07T06:46:19;95192.00;;;12.62;61.43
9225;BME280;4647;48.072;11.616;2023-08-07T06:48:54;95201.31;;;12.93;61.14
9225;BME280;4647;48.072;11.616;2023-08-07T06:51:22;95205.34;;;12.88;61.25
9225;BME280;4647;48.072;11.616;2023-08-07T06:53:51;95204.81;;;12.77;61.38
9225;BME280;4647;48.072;11.616;2023-08-07T06:56:19;95208.22;;;12.81;61.08
9225;BME280;4647;48.072;11.616;2023-08-07T06:58:48;95199.28;;;12.97;60.42
9225;BME280;4647;48.072;11.616;2023-08-07T07:01:17;95180.25;;;12.97;60.26
9225;BME280;4647;48.072;11.616;2023-08-07T07:03:46;95210.72;;;13.37;59.65
9225;BME280;4647;48.072;11.616;2023-08-07T07:06:20;95204.22;;;13.47;59.47
9225;BME280;4647;48.072;11.616;2023-08-07T07:08:51;95193.22;;;13.22;58.45
9225;BME280;4647;48.072;11.616;2023-08-07T07:11:20;95209.50;;;13.55;58.73
9225;BME280;4647;48.072;11.616;2023-08-07T07:13:49;95212.69;;;14.33;57.28
9225;BME280;4647;48.072;11.616;2023-08-07T07:16:18;95207.59;;;14.60;55.96
9225;BME280;4647;48.072;11.616;2023-08-07T07:18:47;95224.72;;;14.61;54.62
9225;BME280;4647;48.072;11.616;2023-08-07T07:21:15;95215.53;;;14.42;55.33
9225;BME280;4647;48.072;11.616;2023-08-07T07:23:49;95201.28;;;14.51;55.61
9225;BME280;4647;48.072;11.616;2023-08-07T07:26:18;95212.63;;;14.49;54.92
9225;BME280;4647;48.072;11.616;2023-08-07T07:28:46;95229.63;;;14.66;54.54
9225;BME280;4647;48.072;11.616;2023-08-07T07:31:16;95216.13;;;13.95;54.86
9225;BME280;4647;48.072;11.616;2023-08-07T07:33:45;95221.19;;;14.35;54.87
9225;BME280;4647;48.072;11.616;2023-08-07T07:36:15;95230.81;;;14.90;54.01
9225;BME280;4647;48.072;11.616;2023-08-07T07:38:48;95244.56;;;14.87;52.92
9225;BME280;4647;48.072;11.616;2023-08-07T07:41:16;95242.38;;;14.82;53.29
9225;BME280;4647;48.072;11.616;2023-08-07T07:43:46;95243.22;;;14.40;53.47
9225;BME280;4647;48.072;11.616;2023-08-07T07:46:14;95252.97;;;14.54;53.82
9225;BME280;4647;48.072;11.616;2023-08-07T07:48:43;95261.47;;;14.56;53.41
9225;BME280;4647;48.072;11.616;2023-08-07T07:51:12;95253.34;;;14.27;54.54
9225;BME280;4647;48.072;11.616;2023-08-07T07:53:41;95255.06;;;14.50;54.03
9225;BME280;4647;48.072;11.616;2023-08-07T07:56:12;95251.06;;;14.26;54.64
9225;BME280;4647;48.072;11.616;2023-08-07T07:58:41;95253.47;;;14.24;54.10
9225;BME280;4647;48.072;11.616;2023-08-07T08:01:09;95247.72;;;13.93;55.08
9225;BME280;4647;48.072;11.616;2023-08-07T08:03:39;95273.28;;;13.82;56.57
9225;BME280;4647;48.072;11.616;2023-08-07T08:06:12;95268.13;;;14.01;56.13
9225;BME280;4647;48.072;11.616;2023-08-07T08:08:42;95264.97;;;14.02;57.24
9225;BME280;4647;48.072;11.616;2023-08-07T08:11:14;95278.97;;;14.30;55.91
9225;BME280;4647;48.072;11.616;2023-08-07T08:13:43;95267.22;;;13.91;56.04
9225;BME280;4647;48.072;11.616;2023-08-07T08:16:14;95273.38;;;14.62;55.66
9225;BME280;4647;48.072;11.616;2023-08-07T08:18:43;95287.66;;;14.79;54.60
9225;BME280;4647;48.072;11.616;2023-08-07T08:21:12;95292.69;;;14.68;54.68
9225;BME280;4647;48.072;11.616;2023-08-07T08:23:43;95285.53;;;14.32;54.86
9225;BME280;4647;48.072;11.616;2023-08-07T08:26:14;95287.38;;;14.23;54.06
9225;BME280;4647;48.072;11.616;2023-08-07T08:28:44;95291.63;;;13.95;54.98
9225;BME280;4647;48.072;11.616;2023-08-07T08:31:15;95291.88;;;14.00;54.54
9225;BME280;4647;48.072;11.616;2023-08-07T08:33:46;95283.97;;;14.19;55.40
9225;BME280;4647;48.072;11.616;2023-08-07T08:36:15;95272.88;;;14.26;55.04
9225;BME280;4647;48.072;11.616;2023-08-07T08:38:45;95289.31;;;14.22;54.94
9225;BME280;4647;48.072;11.616;2023-08-07T08:41:16;95273.16;;;14.15;54.76
9225;BME280;4647;48.072;11.616;2023-08-07T08:43:46;95300.06;;;14.00;55.26
9225;BME280;4647;48.072;11.616;2023-08-07T08:46:15;95296.81;;;14.05;55.21
9225;BME280;4647;48.072;11.616;2023-08-07T08:48:51;95306.94;;;14.05;55.56
9225;BME280;4647;48.072;11.616;2023-08-07T08:51:20;95290.97;;;13.91;55.52
9225;BME280;4647;48.072;11.616;2023-08-07T08:53:50;95303.50;;;13.88;55.32
9225;BME280;4647;48.072;11.616;2023-08-07T08:56:24;95312.19;;;14.12;55.03
9225;BME280;4647;48.072;11.616;2023-08-07T08:58:53;95310.34;;;14.51;54.12
9225;BME280;4647;48.072;11.616;2023-08-07T09:01:21;95319.22;;;13.97;54.62
9225;BME280;4647;48.072;11.616;2023-08-07T09:03:53;95331.97;;;14.00;55.06
9225;BME280;4647;48.072;11.616;2023-08-07T09:06:22;95325.06;;;13.95;55.48
9225;BME280;4647;48.072;11.616;2023-08-07T09:08:51;95333.47;;;14.46;55.35
9225;BME280;4647;48.072;11.616;2023-08-07T09:11:23;95324.84;;;14.60;54.31
9225;BME280;4647;48.072;11.616;2023-08-07T09:13:54;95330.28;;;14.48;54.72
9225;BME280;4647;48.072;11.616;2023-08-07T09:16:24;95318.22;;;14.20;54.21
9225;BME280;4647;48.072;11.616;2023-08-07T09:18:53;95331.72;;;14.23;54.13
9225;BME280;4647;48.072;11.616;2023-08-07T09:21:22;95330.19;;;14.64;53.69
9225;BME280;4647;48.072;11.616;2023-08-07T09:23:50;95313.44;;;14.36;54.77
9225;BME280;4647;48.072;11.616;2023-08-07T09:26:24;95330.31;;;14.73;53.94
9225;BME280;4647;48.072;11.616;2023-08-07T09:28:53;95341.22;;;14.86;52.92
9225;BME280;4647;48.072;11.616;2023-08-07T09:31:23;95312.84;;;14.45;53.48
9225;BME280;4647;48.072;11.616;2023-08-07T09:33:52;95335.84;;;14.44;54.33
9225;BME280;4647;48.072;11.616;2023-08-07T09:36:23;95335.00;;;14.31;54.97
9225;BME280;4647;48.072;11.616;2023-08-07T09:38:52;95337.84;;;14.27;55.02
9225;BME280;4647;48.072;11.616;2023-08-07T09:41:24;95299.78;;;14.24;55.95
9225;BME280;4647;48.072;11.616;2023-08-07T09:43:54;95331.53;;;14.85;54.96
9225;BME280;4647;48.072;11.616;2023-08-07T09:46:22;95328.69;;;15.14;53.96
9225;BME280;4647;48.072;11.616;2023-08-07T09:48:52;95324.44;;;15.25;54.92
9225;BME280;4647;48.072;11.616;2023-08-07T09:51:27;95329.69;;;15.80;53.37
9225;BME280;4647;48.072;11.616;2023-08-07T09:53:57;95330.44;;;15.80;52.48
9225;BME280;4647;48.072;11.616;2023-08-07T09:56:29;95332.47;;;15.67;51.77
9225;BME280;4647;48.072;11.616;2023-08-07T09:58:58;95327.63;;;16.27;51.61
9225;BME280;4647;48.072;11.616;2023-08-07T10:01:26;95331.63;;;16.14;51.76
9225;BME280;4647;48.072;11.616;2023-08-07T10:03:55;95323.81;;;16.03;52.98
9225;BME280;4647;48.072;11.616;2023-08-07T10:06:24;95297.84;;;15.64;53.30
9225;BME280;4647;48.072;11.616;2023-08-07T10:08:56;95319.94;;;15.91;52.88
9225;BME280;4647;48.072;11.616;2023-08-07T10:11:28;95315.09;;;16.17;52.21
9225;BME280;4647;48.072;11.616;2023-08-07T10:13:57;95312.59;;;16.76;51.66
9225;BME280;4647;48.072;11.616;2023-08-07T10:16:27;95315.31;;;16.76;50.76
9225;BME280;4647;48.072;11.616;2023-08-07T10:18:55;95323.25;;;17.14;48.54
9225;BME280;4647;48.072;11.616;2023-08-07T10:21:24;95300.66;;;17.41;48.53
9225;BME280;4647;48.072;11.616;2023-08-07T10:23:53;95322.47;;;17.72;46.92
9225;BME280;4647;48.072;11.616;2023-08-07T10:26:24;95313.63;;;17.59;48.94
9225;BME280;4647;48.072;11.616;2023-08-07T10:28:57;95294.56;;;17.46;47.67
9225;BME280;4647;48.072;11.616;2023-08-07T10:31:27;95306.03;;;17.04;47.74
9225;BME280;4647;48.072;11.616;2023-08-07T10:33:57;95294.84;;;16.80;49.33
9225;BME280;4647;48.072;11.616;2023-08-07T10:36:32;95287.19;;;17.06;48.43
9225;BME280;4647;48.072;11.616;2023-08-07T10:39:06;95301.50;;;16.79;48.51
9225;BME280;4647;48.072;11.616;2023-08-07T10:41:39;95299.56;;;16.80;49.18
9225;BME280;4647;48.072;11.616;2023-08-07T10:44:20;95315.88;;;17.02;48.23
9225;BME280;4647;48.072;11.616;2023-08-07T10:46:50;95310.00;;;16.50;49.94
9225;BME280;4647;48.072;11.616;2023-08-07T10:49:31;95286.13;;;16.51;50.01
9225;BME280;4647;48.072;11.616;2023-08-07T10:52:03;95306.75;;;16.65;49.86
9225;BME280;4647;48.072;11.616;2023-08-07T10:54:37;95306.56;;;16.81;50.31
9225;BME280;4647;48.072;11.616;2023-08-07T10:57:10;95302.00;;;17.27;49.23
9225;BME280;4647;48.072;11.616;2023-08-07T10:59:49;95278.53;;;17.17;49.09
9225;BME280;4647;48.072;11.616;2023-08-07T11:02:23;95303.84;;;16.90;50.56
9225;BME280;4647;48.072;11.616;2023-08-07T11:04:53;95305.66;;;17.33;50.09
9225;BME280;4647;48.072;11.616;2023-08-07T11:07:24;95307.03;;;17.38;49.50
9225;BME280;4647;48.072;11.616;2023-08-07T11:09:52;95268.91;;;17.03;49.48
9225;BME280;4647;48.072;11.616;2023-08-07T11:12:24;95276.44;;;17.30;49.19
9225;BME280;4647;48.072;11.616;2023-08-07T11:14:56;95270.94;;;17.21;48.51
9225;BME280;4647;48.072;11.616;2023-08-07T11:17:24;95302.63;;;17.40;49.27
9225;BME280;4647;48.072;11.616;2023-08-07T11:19:56;95295.09;;;18.27;47.79
9225;BME280;4647;48.072;11.616;2023-08-07T11:22:25;95311.25;;;17.88;45.88
9225;BME280;4647;48.072;11.616;2023-08-07T11:24:53;95311.78;;;17.65;47.22
9225;BME280;4647;48.072;11.616;2023-08-07T11:27:22;95301.31;;;17.05;48.11
9225;BME280;4647;48.072;11.616;2023-08-07T11:29:50;95297.66;;;16.68;50.00
9225;BME280;4647;48.072;11.616;2023-08-07T11:32:23;95296.22;;;16.85;49.75
9225;BME280;4647;48.072;11.616;2023-08-07T11:34:54;95291.69;;;17.49;49.08
9225;BME280;4647;48.072;11.616;2023-08-07T11:37:27;95294.91;;;18.30;47.68
9225;BME280;4647;48.072;11.616;2023-08-07T11:40:00;95296.25;;;18.53;46.02
9225;BME280;4647;48.072;11.616;2023-08-07T11:42:29;95299.63;;;18.39;46.89
9225;BME280;4647;48.072;11.616;2023-08-07T11:44:57;95292.22;;;18.82;44.43
9225;BME280;4647;48.072;11.616;2023-08-07T11:47:28;95304.66;;;18.40;44.80
9225;BME280;4647;48.072;11.616;2023-08-07T11:49:58;95293.72;;;18.22;45.73
9225;BME280;4647;48.072;11.616;2023-08-07T11:52:28;95295.03;;;18.45;45.69
9225;BME280;4647;48.072;11.616;2023-08-07T11:54:56;95303.88;;;17.67;44.85
9225;BME280;4647;48.072;11.616;2023-08-07T11:57:25;95292.88;;;17.39;45.22
9225;BME280;4647;48.072;11.616;2023-08-07T11:59:53;95247.88;;;16.82;44.45
9225;BME280;4647;48.072;11.616;2023-08-07T12:02:25;95302.22;;;16.71;46.48
9225;BME280;4647;48.072;11.616;2023-08-07T12:05:00;95308.13;;;16.38;48.35
9225;BME280;4647;48.072;11.616;2023-08-07T12:07:29;95293.41;;;16.01;50.00
9225;BME280;4647;48.072;11.616;2023-08-07T12:09:58;95319.50;;;16.15;49.47
9225;BME280;4647;48.072;11.616;2023-08-07T12:12:27;95309.72;;;15.70;50.21
9225;BME280;4647;48.072;11.616;2023-08-07T12:14:56;95307.97;;;15.16;53.17
9225;BME280;4647;48.072;11.616;2023-08-07T12:17:24;95325.75;;;15.21;53.80
9225;BME280;4647;48.072;11.616;2023-08-07T12:19:59;95327.03;;;15.42;54.45
9225;BME280;4647;48.072;11.616;2023-08-07T12:22:27;95324.59;;;15.69;54.32
9225;BME280;4647;48.072;11.616;2023-08-07T12:24:56;95323.34;;;16.05;51.57
9225;BME280;4647;48.072;11.616;2023-08-07T12:27:24;95330.44;;;16.37;50.89
9225;BME280;4647;48.072;11.616;2023-08-07T12:29:53;95324.44;;;16.29;50.07
9225;BME280;4647;48.072;11.616;2023-08-07T12:32:22;95335.94;;;16.24;49.80
9225;BME280;4647;48.072;11.616;2023-08-07T12:34:52;95333.50;;;16.92;48.65
9225;BME280;4647;48.072;11.616;2023-08-07T12:37:23;95324.44;;;17.62;47.67
9225;BME280;4647;48.072;11.616;2023-08-07T12:39:51;95336.06;;;17.85;45.87
9225;BME280;4647;48.072;11.616;2023-08-07T12:42:20;95337.13;;;17.96;44.69
9225;BME280;4647;48.072;11.616;2023-08-07T12:44:48;95346.75;;;18.01;44.71
9225;BME280;4647;48.072;11.616;2023-08-07T12:47:17;95335.59;;;17.95;43.43
9225;BME280;4647;48.072;11.616;2023-08-07T12:49:45;95306.59;;;17.48;43.38
9225;BME280;4647;48.072;11.616;2023-08-07T12:52:14;95341.25;;;18.10;44.53
9225;BME280;4647;48.072;11.616;2023-08-07T12:54:45;95330.13;;;18.23;43.89
9225;BME280;4647;48.072;11.616;2023-08-07T12:57:14;95344.28;;;18.12;43.59
9225;BME280;4647;48.072;11.616;2023-08-07T12:59:43;95343.81;;;17.95;45.01
9225;BME280;4647;48.072;11.616;2023-08-07T13:02:14;95336.53;;;18.10;43.47
9225;BME280;4647;48.072;11.616;2023-08-07T13:04:44;95348.25;;;17.74;44.50
9225;BME280;4647;48.072;11.616;2023-08-07T13:07:12;95338.50;;;17.83;46.36
9225;BME280;4647;48.072;11.616;2023-08-07T13:09:41;95345.81;;;17.95;43.75
9225;BME280;4647;48.072;11.616;2023-08-07T13:12:13;95350.22;;;18.47;43.59
9225;BME280;4647;48.072;11.616;2023-08-07T13:14:41;95342.22;;;18.86;42.28
9225;BME280;4647;48.072;11.616;2023-08-07T13:17:10;95349.59;;;19.22;42.64
9225;BME280;4647;48.072;11.616;2023-08-07T13:19:38;95355.41;;;19.57;40.69
9225;BME280;4647;48.072;11.616;2023-08-07T13:22:07;95348.41;;;19.47;41.36
9225;BME280;4647;48.072;11.616;2023-08-07T13:24:35;95357.59;;;19.44;39.48